Grand Canyon, AZ

3:28 AM MST on December 08, 2016 (GMT -0700)
KAZGRAND3 | | Change Station

Elev 6991 ft 36.05 °N, 112.12 °W | Updated 1 second ago

Clear
Clear
22.6 °F
Feels Like 23 °F
N
0.0
Wind Variable Wind from ENE
Gusts 0.0 mph

Today
High -- | Low -- °F
--% Chance of Precip.
Yesterday
High -- | Low -- °F
Precip. -- in
Pressure 30.18 in
Visibility 10.0 miles
Clouds Clear
Windchill 23 °F
Dew Point 10 °F
Humidity 58%
Rainfall 0.00 in
Snow Depth Not available.
7:27 AM 5:14 PM
First Quarter, 62% visible
METAR KGCN 080954Z AUTO 08005KT 10SM CLR M04/M13 A3019 RMK AO2 SLP218 T10391128
Pressure 30.18 in
Visibility 10.0 miles
Clouds Clear
Windchill 23 °F
Dew Point 10 °F
Humidity 58%
Rainfall 0.00 in
Snow Depth Not available.
7:27 AM 5:14 PM
First Quarter, 62% visible
METAR KGCN 080954Z AUTO 08005KT 10SM CLR M04/M13 A3019 RMK AO2 SLP218 T10391128

10-Day Weather Forecast

Almanac

Astronomy

Dec. 08, 2016 Rise Set
Actual Time
Civil Twilight
Nautical Twilight
Astronomical Twilight
Moon
Length of Visible Light
Length of Day
Tomorrow will be .
, % of the Moon is Illuminated

Today's Extremes

State Highs State Lows

Community

WunderPhotos

Upload Photos

1,956,261 photos uploaded!

WunderBlog® & News

Nearby

Air Quality

  Air Quality AQ Index Pollutant
Not available.

Snow Depth

Station Depth Elevation

Earthquake Activity

City Distance Mag. Time & Date
Minimum magnitude displayed is 2.5.

Coastal Water Temperatures

Place Temperature

Stations

Nearby Weather Stations

Station Location Temp. Windchill Dew Point Humidity Wind Precip. Elev Updated Type
                   

Watches & Warnings

There are currently no watches in effect.